sensor_id;sensor_type;location;lat;lon;timestamp;temperature;humidity
51739;DHT22;37815;52.692;6.226;2023-11-22T00:05:00;9.50;99.90
51739;DHT22;37815;52.692;6.226;2023-11-22T00:10:00;9.50;99.90
51739;DHT22;37815;52.692;6.226;2023-11-22T00:15:05;9.50;99.90
51739;DHT22;37815;52.692;6.226;2023-11-22T00:20:07;9.50;99.90
51739;DHT22;37815;52.692;6.226;2023-11-22T00:25:08;9.50;99.90
51739;DHT22;37815;52.692;6.226;2023-11-22T00:30:09;9.50;99.90
51739;DHT22;37815;52.692;6.226;2023-11-22T00:35:10;9.50;99.90
51739;DHT22;37815;52.692;6.226;2023-11-22T00:40:11;9.50;99.90
51739;DHT22;37815;52.692;6.226;2023-11-22T00:45:12;9.50;99.90
51739;DHT22;37815;52.692;6.226;2023-11-22T00:50:13;9.40;99.90
51739;DHT22;37815;52.692;6.226;2023-11-22T00:55:14;9.40;99.90
51739;DHT22;37815;52.692;6.226;2023-11-22T01:00:14;9.40;99.90
51739;DHT22;37815;52.692;6.226;2023-11-22T01:05:15;9.40;99.90
51739;DHT22;37815;52.692;6.226;2023-11-22T01:10:16;9.40;99.90
51739;DHT22;37815;52.692;6.226;2023-11-22T01:15:17;9.40;99.90
51739;DHT22;37815;52.692;6.226;2023-11-22T01:20:17;9.40;99.90
51739;DHT22;37815;52.692;6.226;2023-11-22T01:25:19;9.30;99.90
51739;DHT22;37815;52.692;6.226;2023-11-22T01:30:19;9.30;99.90
51739;DHT22;37815;52.692;6.226;2023-11-22T01:35:20;9.30;99.90
51739;DHT22;37815;52.692;6.226;2023-11-22T01:40:21;9.30;99.90
51739;DHT22;37815;52.692;6.226;2023-11-22T01:45:22;9.30;99.90
51739;DHT22;37815;52.692;6.226;2023-11-22T01:50:23;9.30;99.90
51739;DHT22;37815;52.692;6.226;2023-11-22T01:55:24;9.20;99.90
51739;DHT22;37815;52.692;6.226;2023-11-22T02:00:26;9.20;99.90
51739;DHT22;37815;52.692;6.226;2023-11-22T02:05:28;9.20;99.90
51739;DHT22;37815;52.692;6.226;2023-11-22T02:10:30;9.20;99.90
51739;DHT22;37815;52.692;6.226;2023-11-22T02:15:31;9.20;99.90
51739;DHT22;37815;52.692;6.226;2023-11-22T02:20:32;9.10;99.90
51739;DHT22;37815;52.692;6.226;2023-11-22T02:25:33;9.10;99.90
51739;DHT22;37815;52.692;6.226;2023-11-22T02:30:34;9.10;99.90
51739;DHT22;37815;52.692;6.226;2023-11-22T02:35:35;9.10;99.90
51739;DHT22;37815;52.692;6.226;2023-11-22T02:40:36;9.10;99.90
51739;DHT22;37815;52.692;6.226;2023-11-22T02:45:36;9.00;99.90
51739;DHT22;37815;52.692;6.226;2023-11-22T02:50:37;9.00;99.90
51739;DHT22;37815;52.692;6.226;2023-11-22T02:55:38;9.00;99.90
51739;DHT22;37815;52.692;6.226;2023-11-22T03:00:42;9.00;99.90
51739;DHT22;37815;52.692;6.226;2023-11-22T03:05:44;9.00;99.90
51739;DHT22;37815;52.692;6.226;2023-11-22T03:10:44;9.00;99.90
51739;DHT22;37815;52.692;6.226;2023-11-22T03:15:45;8.90;99.90
51739;DHT22;37815;52.692;6.226;2023-11-22T03:20:45;8.90;99.90
51739;DHT22;37815;52.692;6.226;2023-11-22T03:25:47;8.90;99.90
51739;DHT22;37815;52.692;6.226;2023-11-22T03:30:48;8.90;99.90
51739;DHT22;37815;52.692;6.226;2023-11-22T03:35:48;8.80;99.90
51739;DHT22;37815;52.692;6.226;2023-11-22T03:40:49;8.80;99.90
51739;DHT22;37815;52.692;6.226;2023-11-22T03:45:49;8.80;99.90
51739;DHT22;37815;52.692;6.226;2023-11-22T03:50:50;8.80;99.90
51739;DHT22;37815;52.692;6.226;2023-11-22T03:55:52;8.80;99.90
51739;DHT22;37815;52.692;6.226;2023-11-22T04:00:53;8.70;99.90
51739;DHT22;37815;52.692;6.226;2023-11-22T04:05:53;8.70;99.90
51739;DHT22;37815;52.692;6.226;2023-11-22T04:10:54;8.70;99.90
51739;DHT22;37815;52.692;6.226;2023-11-22T04:15:54;8.70;99.90
51739;DHT22;37815;52.692;6.226;2023-11-22T04:20:55;8.70;99.90
51739;DHT22;37815;52.692;6.226;2023-11-22T04:25:59;8.60;99.90
51739;DHT22;37815;52.692;6.226;2023-11-22T04:31:00;8.60;99.90
51739;DHT22;37815;52.692;6.226;2023-11-22T04:36:01;8.60;99.90
51739;DHT22;37815;52.692;6.226;2023-11-22T04:41:02;8.60;99.90
51739;DHT22;37815;52.692;6.226;2023-11-22T04:46:02;8.60;99.90
51739;DHT22;37815;52.692;6.226;2023-11-22T04:51:04;8.50;99.90
51739;DHT22;37815;52.692;6.226;2023-11-22T04:56:06;8.50;99.90
51739;DHT22;37815;52.692;6.226;2023-11-22T05:01:06;8.50;99.90
51739;DHT22;37815;52.692;6.226;2023-11-22T05:06:09;8.50;99.90
51739;DHT22;37815;52.692;6.226;2023-11-22T05:11:10;8.40;99.90
51739;DHT22;37815;52.692;6.226;2023-11-22T05:16:11;8.40;99.90
51739;DHT22;37815;52.692;6.226;2023-11-22T05:21:11;8.40;99.90
51739;DHT22;37815;52.692;6.226;2023-11-22T05:26:12;8.40;99.90
51739;DHT22;37815;52.692;6.226;2023-11-22T05:31:13;8.30;99.90
51739;DHT22;37815;52.692;6.226;2023-11-22T05:36:14;8.30;99.90
51739;DHT22;37815;52.692;6.226;2023-11-22T05:41:17;8.30;99.90
51739;DHT22;37815;52.692;6.226;2023-11-22T05:46:21;8.30;99.90
51739;DHT22;37815;52.692;6.226;2023-11-22T05:51:22;8.30;99.90
51739;DHT22;37815;52.692;6.226;2023-11-22T05:56:23;8.30;99.90
51739;DHT22;37815;52.692;6.226;2023-11-22T06:01:24;8.20;99.90
51739;DHT22;37815;52.692;6.226;2023-11-22T06:06:24;8.20;99.90
51739;DHT22;37815;52.692;6.226;2023-11-22T06:11:25;8.20;99.90
51739;DHT22;37815;52.692;6.226;2023-11-22T06:16:25;8.20;99.90
51739;DHT22;37815;52.692;6.226;2023-11-22T06:21:26;8.20;99.90
51739;DHT22;37815;52.692;6.226;2023-11-22T06:26:27;8.20;99.90
51739;DHT22;37815;52.692;6.226;2023-11-22T06:31:27;8.10;99.90
51739;DHT22;37815;52.692;6.226;2023-11-22T06:36:28;8.10;99.90
51739;DHT22;37815;52.692;6.226;2023-11-22T06:41:30;8.10;99.90
51739;DHT22;37815;52.692;6.226;2023-11-22T06:46:30;8.10;99.90
51739;DHT22;37815;52.692;6.226;2023-11-22T06:51:31;8.10;99.90
51739;DHT22;37815;52.692;6.226;2023-11-22T06:56:32;8.10;99.90
51739;DHT22;37815;52.692;6.226;2023-11-22T07:01:33;8.10;99.90
51739;DHT22;37815;52.692;6.226;2023-11-22T07:06:33;8.10;99.90
51739;DHT22;37815;52.692;6.226;2023-11-22T07:11:34;8.00;99.90
51739;DHT22;37815;52.692;6.226;2023-11-22T07:16:35;8.00;99.90
51739;DHT22;37815;52.692;6.226;2023-11-22T07:21:35;8.00;99.90
51739;DHT22;37815;52.692;6.226;2023-11-22T07:26:38;8.00;99.90
51739;DHT22;37815;52.692;6.226;2023-11-22T07:31:39;8.00;99.90
51739;DHT22;37815;52.692;6.226;2023-11-22T07:36:40;8.00;99.90
51739;DHT22;37815;52.692;6.226;2023-11-22T07:41:40;8.00;99.90
51739;DHT22;37815;52.692;6.226;2023-11-22T07:46:42;7.90;99.90
51739;DHT22;37815;52.692;6.226;2023-11-22T07:51:44;7.90;99.90
51739;DHT22;37815;52.692;6.226;2023-11-22T07:56:45;7.90;99.90
51739;DHT22;37815;52.692;6.226;2023-11-22T08:01:48;8.00;99.90
51739;DHT22;37815;52.692;6.226;2023-11-22T08:06:49;8.00;99.90
51739;DHT22;37815;52.692;6.226;2023-11-22T08:11:49;7.90;99.90
51739;DHT22;37815;52.692;6.226;2023-11-22T08:16:50;7.90;99.90
51739;DHT22;37815;52.692;6.226;2023-11-22T08:21:51;7.90;99.90
51739;DHT22;37815;52.692;6.226;2023-11-22T08:26:54;7.90;99.90
51739;DHT22;37815;52.692;6.226;2023-11-22T08:31:55;7.90;99.90
51739;DHT22;37815;52.692;6.226;2023-11-22T08:36:55;7.90;99.90
51739;DHT22;37815;52.692;6.226;2023-11-22T08:41:56;7.90;99.90
51739;DHT22;37815;52.692;6.226;2023-11-22T08:46:56;8.00;99.90
51739;DHT22;37815;52.692;6.226;2023-11-22T08:51:57;8.00;99.90
51739;DHT22;37815;52.692;6.226;2023-11-22T08:56:59;8.00;99.90
51739;DHT22;37815;52.692;6.226;2023-11-22T09:02:00;8.00;99.90
51739;DHT22;37815;52.692;6.226;2023-11-22T09:07:01;7.90;99.90
51739;DHT22;37815;52.692;6.226;2023-11-22T09:12:02;7.90;99.90
51739;DHT22;37815;52.692;6.226;2023-11-22T09:17:03;7.90;99.90
51739;DHT22;37815;52.692;6.226;2023-11-22T09:22:06;7.90;99.90
51739;DHT22;37815;52.692;6.226;2023-11-22T09:27:07;8.00;99.90
51739;DHT22;37815;52.692;6.226;2023-11-22T09:32:10;8.00;99.90
51739;DHT22;37815;52.692;6.226;2023-11-22T09:37:13;8.00;99.90
51739;DHT22;37815;52.692;6.226;2023-11-22T09:42:15;8.00;99.90
51739;DHT22;37815;52.692;6.226;2023-11-22T09:47:16;8.10;99.90
51739;DHT22;37815;52.692;6.226;2023-11-22T09:52:21;8.00;99.90
51739;DHT22;37815;52.692;6.226;2023-11-22T09:57:24;8.00;99.90
51739;DHT22;37815;52.692;6.226;2023-11-22T10:02:26;8.20;99.90
51739;DHT22;37815;52.692;6.226;2023-11-22T10:07:28;8.30;99.90
51739;DHT22;37815;52.692;6.226;2023-11-22T10:12:29;8.50;99.90
51739;DHT22;37815;52.692;6.226;2023-11-22T10:17:30;8.60;99.90
51739;DHT22;37815;52.692;6.226;2023-11-22T10:22:44;8.60;99.90
51739;DHT22;37815;52.692;6.226;2023-11-22T10:27:46;8.60;99.90
51739;DHT22;37815;52.692;6.226;2023-11-22T10:32:52;8.70;99.90
51739;DHT22;37815;52.692;6.226;2023-11-22T10:37:52;8.60;99.90
51739;DHT22;37815;52.692;6.226;2023-11-22T10:42:53;8.60;99.90
51739;DHT22;37815;52.692;6.226;2023-11-22T10:47:55;8.60;99.90
51739;DHT22;37815;52.692;6.226;2023-11-22T10:52:58;8.60;99.90
51739;DHT22;37815;52.692;6.226;2023-11-22T10:58:03;8.60;99.90
51739;DHT22;37815;52.692;6.226;2023-11-22T11:03:08;8.70;99.90
51739;DHT22;37815;52.692;6.226;2023-11-22T11:08:13;8.70;99.80
51739;DHT22;37815;52.692;6.226;2023-11-22T11:13:14;8.80;99.90
51739;DHT22;37815;52.692;6.226;2023-11-22T11:18:15;8.80;99.90
51739;DHT22;37815;52.692;6.226;2023-11-22T11:23:19;8.80;99.90
51739;DHT22;37815;52.692;6.226;2023-11-22T11:28:20;8.70;99.90
51739;DHT22;37815;52.692;6.226;2023-11-22T11:33:33;8.70;99.80
51739;DHT22;37815;52.692;6.226;2023-11-22T11:38:34;8.80;99.80
51739;DHT22;37815;52.692;6.226;2023-11-22T11:43:55;8.80;99.80
51739;DHT22;37815;52.692;6.226;2023-11-22T11:48:55;8.80;99.70
51739;DHT22;37815;52.692;6.226;2023-11-22T11:53:56;8.80;99.70
51739;DHT22;37815;52.692;6.226;2023-11-22T11:58:57;8.80;99.50
51739;DHT22;37815;52.692;6.226;2023-11-22T12:04:03;8.80;99.60
51739;DHT22;37815;52.692;6.226;2023-11-22T12:09:04;8.90;99.80
51739;DHT22;37815;52.692;6.226;2023-11-22T12:14:04;9.00;99.70
51739;DHT22;37815;52.692;6.226;2023-11-22T12:19:05;9.00;99.40
51739;DHT22;37815;52.692;6.226;2023-11-22T12:24:06;9.00;99.60
51739;DHT22;37815;52.692;6.226;2023-11-22T12:29:07;9.00;99.70
51739;DHT22;37815;52.692;6.226;2023-11-22T12:34:09;9.00;99.70
51739;DHT22;37815;52.692;6.226;2023-11-22T12:39:11;9.00;99.70
51739;DHT22;37815;52.692;6.226;2023-11-22T12:44:17;8.90;99.20
51739;DHT22;37815;52.692;6.226;2023-11-22T12:49:18;9.00;99.50
51739;DHT22;37815;52.692;6.226;2023-11-22T12:54:19;8.90;99.60
51739;DHT22;37815;52.692;6.226;2023-11-22T12:59:21;8.90;99.60
51739;DHT22;37815;52.692;6.226;2023-11-22T13:04:22;8.90;99.70
51739;DHT22;37815;52.692;6.226;2023-11-22T13:09:22;8.80;99.70
51739;DHT22;37815;52.692;6.226;2023-11-22T13:14:23;8.90;99.70
51739;DHT22;37815;52.692;6.226;2023-11-22T13:19:24;8.90;99.90
51739;DHT22;37815;52.692;6.226;2023-11-22T13:24:25;8.90;99.80
51739;DHT22;37815;52.692;6.226;2023-11-22T13:29:27;8.90;99.90
51739;DHT22;37815;52.692;6.226;2023-11-22T13:34:28;8.90;99.80
51739;DHT22;37815;52.692;6.226;2023-11-22T13:39:29;8.90;99.80
51739;DHT22;37815;52.692;6.226;2023-11-22T13:44:33;8.90;99.90
51739;DHT22;37815;52.692;6.226;2023-11-22T13:49:34;8.90;99.90
51739;DHT22;37815;52.692;6.226;2023-11-22T13:54:34;8.90;99.90
51739;DHT22;37815;52.692;6.226;2023-11-22T13:59:39;8.90;99.90
51739;DHT22;37815;52.692;6.226;2023-11-22T14:04:40;8.90;99.90
51739;DHT22;37815;52.692;6.226;2023-11-22T14:09:41;8.90;99.90
51739;DHT22;37815;52.692;6.226;2023-11-22T14:14:41;8.90;99.90
51739;DHT22;37815;52.692;6.226;2023-11-22T14:19:42;8.90;99.90
51739;DHT22;37815;52.692;6.226;2023-11-22T14:24:43;8.90;99.90
51739;DHT22;37815;52.692;6.226;2023-11-22T14:29:47;8.90;99.90
51739;DHT22;37815;52.692;6.226;2023-11-22T14:34:50;8.90;99.90
51739;DHT22;37815;52.692;6.226;2023-11-22T14:39:51;8.90;99.90
51739;DHT22;37815;52.692;6.226;2023-11-22T14:44:52;8.90;99.90
51739;DHT22;37815;52.692;6.226;2023-11-22T14:49:52;9.00;99.90
51739;DHT22;37815;52.692;6.226;2023-11-22T14:54:53;8.90;99.90
51739;DHT22;37815;52.692;6.226;2023-11-22T14:59:54;8.90;99.90
51739;DHT22;37815;52.692;6.226;2023-11-22T15:04:56;9.00;99.90
51739;DHT22;37815;52.692;6.226;2023-11-22T15:09:57;8.90;99.90
51739;DHT22;37815;52.692;6.226;2023-11-22T15:14:58;8.90;99.90
51739;DHT22;37815;52.692;6.226;2023-11-22T15:19:59;8.90;99.90
51739;DHT22;37815;52.692;6.226;2023-11-22T15:24:59;8.90;99.90
51739;DHT22;37815;52.692;6.226;2023-11-22T15:30:00;8.90;99.90
51739;DHT22;37815;52.692;6.226;2023-11-22T15:35:01;8.80;99.90
51739;DHT22;37815;52.692;6.226;2023-11-22T15:40:05;8.80;99.90
51739;DHT22;37815;52.692;6.226;2023-11-22T15:45:08;8.80;99.90
51739;DHT22;37815;52.692;6.226;2023-11-22T15:50:09;8.80;99.90
51739;DHT22;37815;52.692;6.226;2023-11-22T15:55:10;8.70;99.90
51739;DHT22;37815;52.692;6.226;2023-11-22T16:00:12;8.80;99.90
51739;DHT22;37815;52.692;6.226;2023-11-22T16:05:13;8.70;99.90
51739;DHT22;37815;52.692;6.226;2023-11-22T16:10:13;8.70;99.90
51739;DHT22;37815;52.692;6.226;2023-11-22T16:15:14;8.70;99.90
51739;DHT22;37815;52.692;6.226;2023-11-22T16:20:18;8.70;99.90
51739;DHT22;37815;52.692;6.226;2023-11-22T16:25:22;8.70;99.90
51739;DHT22;37815;52.692;6.226;2023-11-22T16:30:25;8.70;99.90
51739;DHT22;37815;52.692;6.226;2023-11-22T16:35:26;8.70;99.90
51739;DHT22;37815;52.692;6.226;2023-11-22T16:40:27;8.70;99.90
51739;DHT22;37815;52.692;6.226;2023-11-22T16:45:28;8.70;99.90
51739;DHT22;37815;52.692;6.226;2023-11-22T16:50:28;8.60;99.90
51739;DHT22;37815;52.692;6.226;2023-11-22T16:55:29;8.60;99.90
51739;DHT22;37815;52.692;6.226;2023-11-22T17:00:29;8.60;99.90
51739;DHT22;37815;52.692;6.226;2023-11-22T17:05:30;8.60;99.90
51739;DHT22;37815;52.692;6.226;2023-11-22T17:10:30;8.70;99.90
51739;DHT22;37815;52.692;6.226;2023-11-22T17:15:31;8.70;99.90
51739;DHT22;37815;52.692;6.226;2023-11-22T17:20:33;8.70;99.90
51739;DHT22;37815;52.692;6.226;2023-11-22T17:25:33;8.70;99.90
51739;DHT22;37815;52.692;6.226;2023-11-22T17:30:34;8.80;99.90
51739;DHT22;37815;52.692;6.226;2023-11-22T17:35:34;8.80;99.90
51739;DHT22;37815;52.692;6.226;2023-11-22T17:40:35;8.80;99.90
51739;DHT22;37815;52.692;6.226;2023-11-22T17:45:35;8.80;99.90
51739;DHT22;37815;52.692;6.226;2023-11-22T17:50:39;8.80;99.90
51739;DHT22;37815;52.692;6.226;2023-11-22T17:55:40;8.80;99.90
51739;DHT22;37815;52.692;6.226;2023-11-22T18:00:43;8.80;99.90
51739;DHT22;37815;52.692;6.226;2023-11-22T18:05:43;8.90;99.90
51739;DHT22;37815;52.692;6.226;2023-11-22T18:10:44;8.90;99.90
51739;DHT22;37815;52.692;6.226;2023-11-22T18:15:44;8.80;99.90
51739;DHT22;37815;52.692;6.226;2023-11-22T18:20:45;9.70;99.90
51739;DHT22;37815;52.692;6.226;2023-11-22T18:25:45;8.80;99.90
51739;DHT22;37815;52.692;6.226;2023-11-22T18:30:46;8.90;99.90
51739;DHT22;37815;52.692;6.226;2023-11-22T18:35:46;8.90;99.90
51739;DHT22;37815;52.692;6.226;2023-11-22T18:40:47;8.70;99.90
51739;DHT22;37815;52.692;6.226;2023-11-22T18:45:48;8.90;99.90
51739;DHT22;37815;52.692;6.226;2023-11-22T18:50:48;8.90;99.90
51739;DHT22;37815;52.692;6.226;2023-11-22T18:55:48;8.80;99.90
51739;DHT22;37815;52.692;6.226;2023-11-22T19:00:50;8.90;99.90
51739;DHT22;37815;52.692;6.226;2023-11-22T19:08:54;8.90;99.90
51739;DHT22;37815;52.692;6.226;2023-11-22T19:13:55;9.20;99.90
51739;DHT22;37815;52.692;6.226;2023-11-22T19:18:56;9.50;99.90
51739;DHT22;37815;52.692;6.226;2023-11-22T19:23:56;9.60;99.90
51739;DHT22;37815;52.692;6.226;2023-11-22T19:29:01;9.60;99.60
51739;DHT22;37815;52.692;6.226;2023-11-22T19:34:02;9.70;99.70
51739;DHT22;37815;52.692;6.226;2023-11-22T19:39:03;9.80;99.40
51739;DHT22;37815;52.692;6.226;2023-11-22T19:44:04;10.00;99.30
51739;DHT22;37815;52.692;6.226;2023-11-22T19:49:05;9.90;99.20
51739;DHT22;37815;52.692;6.226;2023-11-22T19:54:07;10.10;99.20
51739;DHT22;37815;52.692;6.226;2023-11-22T19:59:11;9.90;99.10
51739;DHT22;37815;52.692;6.226;2023-11-22T20:04:12;9.90;99.10
51739;DHT22;37815;52.692;6.226;2023-11-22T20:09:13;9.90;99.00
51739;DHT22;37815;52.692;6.226;2023-11-22T20:14:14;9.90;99.00
51739;DHT22;37815;52.692;6.226;2023-11-22T20:19:15;9.90;98.90
51739;DHT22;37815;52.692;6.226;2023-11-22T20:24:16;9.90;98.90
51739;DHT22;37815;52.692;6.226;2023-11-22T20:29:16;10.00;98.90
51739;DHT22;37815;52.692;6.226;2023-11-22T20:34:17;10.00;98.80
51739;DHT22;37815;52.692;6.226;2023-11-22T20:39:17;10.00;98.90
51739;DHT22;37815;52.692;6.226;2023-11-22T20:44:20;10.00;98.90
51739;DHT22;37815;52.692;6.226;2023-11-22T20:49:21;10.10;99.00
51739;DHT22;37815;52.692;6.226;2023-11-22T20:54:25;10.00;98.90
51739;DHT22;37815;52.692;6.226;2023-11-22T20:59:26;10.00;99.00
51739;DHT22;37815;52.692;6.226;2023-11-22T21:04:26;10.00;99.00
51739;DHT22;37815;52.692;6.226;2023-11-22T21:09:27;10.00;99.00
51739;DHT22;37815;52.692;6.226;2023-11-22T21:14:28;10.10;99.00
51739;DHT22;37815;52.692;6.226;2023-11-22T21:19:28;10.10;99.00
51739;DHT22;37815;52.692;6.226;2023-11-22T21:24:29;10.10;99.00
51739;DHT22;37815;52.692;6.226;2023-11-22T21:29:30;10.10;99.10
51739;DHT22;37815;52.692;6.226;2023-11-22T21:34:31;10.10;99.10
51739;DHT22;37815;52.692;6.226;2023-11-22T21:39:32;10.10;99.10
51739;DHT22;37815;52.692;6.226;2023-11-22T21:44:32;10.10;99.20
51739;DHT22;37815;52.692;6.226;2023-11-22T21:49:36;10.10;99.20
51739;DHT22;37815;52.692;6.226;2023-11-22T21:54:38;10.10;99.20
51739;DHT22;37815;52.692;6.226;2023-11-22T21:59:38;10.10;99.30
51739;DHT22;37815;52.692;6.226;2023-11-22T22:04:39;10.10;99.30
51739;DHT22;37815;52.692;6.226;2023-11-22T22:09:39;10.10;99.30
51739;DHT22;37815;52.692;6.226;2023-11-22T22:14:40;10.10;99.30
51739;DHT22;37815;52.692;6.226;2023-11-22T22:19:42;10.10;99.30
51739;DHT22;37815;52.692;6.226;2023-11-22T22:24:42;10.10;99.30
51739;DHT22;37815;52.692;6.226;2023-11-22T22:29:43;10.10;99.30
51739;DHT22;37815;52.692;6.226;2023-11-22T22:34:43;10.10;99.30
51739;DHT22;37815;52.692;6.226;2023-11-22T22:39:44;10.10;99.30
51739;DHT22;37815;52.692;6.226;2023-11-22T22:44:45;10.10;99.30
51739;DHT22;37815;52.692;6.226;2023-11-22T22:49:45;10.20;99.40
51739;DHT22;37815;52.692;6.226;2023-11-22T22:54:46;10.20;99.40
51739;DHT22;37815;52.692;6.226;2023-11-22T22:59:46;10.20;99.40
51739;DHT22;37815;52.692;6.226;2023-11-22T23:04:47;10.20;99.70
51739;DHT22;37815;52.692;6.226;2023-11-22T23:09:47;10.20;99.40
51739;DHT22;37815;52.692;6.226;2023-11-22T23:14:49;10.20;99.40
51739;DHT22;37815;52.692;6.226;2023-11-22T23:19:49;10.20;99.40
51739;DHT22;37815;52.692;6.226;2023-11-22T23:24:51;10.20;99.40
51739;DHT22;37815;52.692;6.226;2023-11-22T23:29:51;10.20;99.50
51739;DHT22;37815;52.692;6.226;2023-11-22T23:34:52;10.20;99.60
51739;DHT22;37815;52.692;6.226;2023-11-22T23:39:54;10.20;99.50
51739;DHT22;37815;52.692;6.226;2023-11-22T23:44:58;10.20;99.50
51739;DHT22;37815;52.692;6.226;2023-11-22T23:49:59;10.30;99.50
51739;DHT22;37815;52.692;6.226;2023-11-22T23:55:00;10.30;99.50
